Time;durP1;ratioP1;P1;durP2;ratioP2;P2;SDS_P1;SDS_P2;PMS_P1;PMS_P2;Temp;Humidity;BMP_temperature;BMP_pressure;BME280_temperature;BME280_humidity;BME280_pressure;Samples;Min_cycle;Max_cycle;Signal;HPM_P1;HPM_P2
2023/09/23 00:00:22;;;;;;;;;;;;;;;24.58;44.92;100464.53;108884;1268;67773;-90
2023/09/23 00:02:51;;;;;;;;;;;;;;;24.58;44.86;100464.39;108933;1265;75034;-90
2023/09/23 00:05:20;;;;;;;;;;;;;;;24.58;44.81;100464.80;108955;1265;67528;-90
2023/09/23 00:07:46;;;;;;;;;;;;;;;24.58;44.94;100464.94;108961;1265;67153;-89
2023/09/23 00:10:12;;;;;;;;;;;;;;;24.57;44.77;100466.04;108960;1266;67619;-90
2023/09/23 00:12:40;;;;;;;;;;;;;;;24.57;44.81;100473.81;108918;1269;67222;-90
2023/09/23 00:15:07;;;;;;;;;;;;;;;24.57;44.79;100475.82;108929;1266;74374;-90
2023/09/23 00:17:33;;;;;;;;;;;;;;;24.57;45.02;100474.79;108902;1266;67897;-90
2023/09/23 00:20:00;;;;;;;;;;;;;;;24.57;44.90;100474.90;108929;1267;67598;-90
2023/09/23 00:22:30;;;;;;;;;;;;;;;24.56;44.86;100473.16;108898;1266;67771;31
2023/09/23 00:24:58;;;;;;;;;;;;;;;24.56;44.82;100473.57;108981;1266;67575;-90
2023/09/23 00:27:26;;;;;;;;;;;;;;;24.57;44.90;100471.20;108882;1266;75204;-90
2023/09/23 00:29:52;;;;;;;;;;;;;;;24.56;44.97;100466.22;108940;1265;67686;-90
2023/09/23 00:32:19;;;;;;;;;;;;;;;24.56;45.03;100467.34;108991;1266;67381;-90
2023/09/23 00:34:46;;;;;;;;;;;;;;;24.56;45.09;100461.23;109083;1266;67184;-90
2023/09/23 00:39:45;;;;;;;;;;;;;;;24.56;44.90;100459.23;109066;1265;74261;-90
2023/09/23 00:42:12;;;;;;;;;;;;;;;24.56;45.06;100460.47;109050;1266;67712;-90
2023/09/23 00:44:42;;;;;;;;;;;;;;;24.56;44.90;100464.16;108923;1266;67724;-90
2023/09/23 00:47:09;;;;;;;;;;;;;;;24.55;45.07;100463.98;108883;1266;67605;-90
2023/09/23 00:49:41;;;;;;;;;;;;;;;24.55;45.08;100463.97;109020;1263;67480;-90
2023/09/23 00:54:51;;;;;;;;;;;;;;;24.55;45.07;100461.25;109013;1269;67559;-90
2023/09/23 00:57:17;;;;;;;;;;;;;;;24.54;44.86;100459.77;108941;1267;67606;-90
2023/09/23 00:59:44;;;;;;;;;;;;;;;24.54;44.91;100465.39;109130;1266;66886;-90
2023/09/23 01:02:13;;;;;;;;;;;;;;;24.54;45.05;100461.84;109018;1266;67363;-90
2023/09/23 01:04:43;;;;;;;;;;;;;;;24.54;44.95;100463.54;108957;1266;74194;-90
2023/09/23 01:09:52;;;;;;;;;;;;;;;24.54;44.77;100459.59;109081;1267;67622;-90
2023/09/23 01:12:19;;;;;;;;;;;;;;;24.53;45.00;100458.01;109184;1265;67445;-89
2023/09/23 01:14:45;;;;;;;;;;;;;;;24.54;44.99;100462.21;108940;1266;67046;-90
2023/09/23 01:17:15;;;;;;;;;;;;;;;24.53;45.05;100461.02;109048;1266;75132;-90
2023/09/23 01:19:52;;;;;;;;;;;;;;;24.53;44.89;100460.71;108964;1266;67874;-90
2023/09/23 01:22:23;;;;;;;;;;;;;;;24.53;44.97;100461.70;108933;1266;67599;-90
2023/09/23 01:24:49;;;;;;;;;;;;;;;24.53;45.09;100463.09;108880;1267;67675;-90
2023/09/23 01:27:18;;;;;;;;;;;;;;;24.52;45.08;100464.48;108906;1268;67837;-90
2023/09/23 01:29:52;;;;;;;;;;;;;;;24.53;45.12;100462.52;109020;1266;75392;-90
2023/09/23 01:34:59;;;;;;;;;;;;;;;24.52;45.07;100450.71;108975;1267;67777;-90
2023/09/23 01:37:29;;;;;;;;;;;;;;;24.52;45.09;100454.66;109035;1264;67369;-89
2023/09/23 01:39:56;;;;;;;;;;;;;;;24.52;45.15;100454.52;108958;1266;67603;-89
2023/09/23 01:42:22;;;;;;;;;;;;;;;24.52;44.94;100457.19;108949;1268;67149;-89
2023/09/23 01:44:48;;;;;;;;;;;;;;;24.51;45.20;100452.16;108885;1267;67706;-91
2023/09/23 01:47:17;;;;;;;;;;;;;;;24.51;45.14;100452.20;108950;1266;67706;-90
2023/09/23 01:49:43;;;;;;;;;;;;;;;24.51;45.01;100454.73;109019;1266;67545;-90
2023/09/23 01:52:18;;;;;;;;;;;;;;;24.50;44.93;100456.22;108916;1273;67685;31
2023/09/23 01:54:44;;;;;;;;;;;;;;;24.51;45.06;100459.61;108968;1266;74542;-91
2023/09/23 01:57:16;;;;;;;;;;;;;;;24.50;45.05;100464.26;108887;1266;68015;-90
2023/09/23 01:59:42;;;;;;;;;;;;;;;24.51;45.03;100468.52;108971;1266;67655;-90
2023/09/23 02:02:09;;;;;;;;;;;;;;;24.51;45.12;100470.94;108849;1266;67576;-90
2023/09/23 02:04:37;;;;;;;;;;;;;;;24.51;45.08;100474.04;108966;1266;67517;-90
2023/09/23 02:07:13;;;;;;;;;;;;;;;24.50;44.95;100475.58;108923;1266;75177;31
2023/09/23 02:09:39;;;;;;;;;;;;;;;24.50;45.01;100483.08;108950;1266;67697;-90
2023/09/23 02:12:05;;;;;;;;;;;;;;;24.50;45.13;100486.02;108979;1266;67591;-90
2023/09/23 02:14:32;;;;;;;;;;;;;;;24.50;44.98;100484.06;109031;1265;67633;-90
2023/09/23 02:16:58;;;;;;;;;;;;;;;24.50;45.19;100485.40;109016;1266;67303;-90
2023/09/23 02:19:25;;;;;;;;;;;;;;;24.49;44.95;100487.98;109278;1265;66992;-89
2023/09/23 02:24:22;;;;;;;;;;;;;;;24.49;45.04;100489.47;109205;1267;67584;-90
2023/09/23 02:26:51;;;;;;;;;;;;;;;24.49;45.12;100490.87;109107;1265;67410;-90
2023/09/23 02:29:17;;;;;;;;;;;;;;;24.49;45.12;100488.81;109024;1266;67651;-90
2023/09/23 02:31:58;;;;;;;;;;;;;;;;;;;;;
2023/09/23 02:34:28;;;;;;;;;;;;;;;24.48;45.13;100480.58;108902;1267;73181;-90
2023/09/23 02:37:04;;;;;;;;;;;;;;;24.48;45.02;100489.90;108945;1266;67017;31
2023/09/23 02:39:31;;;;;;;;;;;;;;;24.48;44.96;100502.50;108944;1267;66973;-90
2023/09/23 02:41:59;;;;;;;;;;;;;;;24.48;45.03;100502.60;109001;1266;67046;-90
2023/09/23 02:44:30;;;;;;;;;;;;;;;24.48;45.13;100504.04;108919;1266;74580;-90
2023/09/23 02:46:58;;;;;;;;;;;;;;;24.48;45.11;100502.45;108884;1267;67519;-90
2023/09/23 02:49:25;;;;;;;;;;;;;;;24.47;44.99;100497.46;108936;1266;67401;-90
2023/09/23 02:52:01;;;;;;;;;;;;;;;24.48;45.01;100496.64;109007;1266;67918;31
2023/09/23 02:54:27;;;;;;;;;;;;;;;24.47;45.04;100498.59;109031;1266;67684;-90
2023/09/23 02:56:54;;;;;;;;;;;;;;;24.47;45.07;100498.97;108902;1267;69715;-90
2023/09/23 02:59:29;;;;;;;;;;;;;;;24.47;45.14;100500.66;108890;1268;67628;-90
2023/09/23 03:01:58;;;;;;;;;;;;;;;24.47;44.91;100497.11;108898;1267;67789;-90
2023/09/23 03:04:25;;;;;;;;;;;;;;;24.47;45.18;100494.70;109024;1265;67572;-90
2023/09/23 03:07:01;;;;;;;;;;;;;;;24.46;45.19;100491.56;108936;1265;67633;31
2023/09/23 03:09:32;;;;;;;;;;;;;;;24.46;45.20;100493.57;108985;1267;74230;-90
2023/09/23 03:12:00;;;;;;;;;;;;;;;24.46;45.15;100492.91;108881;1266;67752;-90
2023/09/23 03:14:42;;;;;;;;;;;;;;;24.46;45.12;100489.41;108861;1269;67607;-91
2023/09/23 03:17:12;;;;;;;;;;;;;;;24.45;45.12;100488.34;108890;1267;67545;-90
2023/09/23 03:19:39;;;;;;;;;;;;;;;24.45;45.20;100484.23;108949;1266;67726;-90
2023/09/23 03:22:05;;;;;;;;;;;;;;;24.44;44.96;100483.88;108998;1267;67755;-90
2023/09/23 03:24:31;;;;;;;;;;;;;;;24.44;45.08;100485.79;108904;1266;67612;-90
2023/09/23 03:27:00;;;;;;;;;;;;;;;24.44;45.06;100483.57;108859;1266;67689;-90
2023/09/23 03:29:32;;;;;;;;;;;;;;;24.44;45.20;100483.94;109018;1266;68258;-90
2023/09/23 03:31:59;;;;;;;;;;;;;;;24.44;45.13;100485.77;108966;1267;67022;-90
2023/09/23 03:34:29;;;;;;;;;;;;;;;24.43;45.08;100484.46;108914;1267;74267;-90
2023/09/23 03:36:56;;;;;;;;;;;;;;;24.43;44.94;100485.40;108849;1267;67717;-89
2023/09/23 03:39:22;;;;;;;;;;;;;;;24.43;45.08;100486.68;108957;1266;67319;-89
2023/09/23 03:41:48;;;;;;;;;;;;;;;24.43;45.14;100487.20;108873;1265;67783;-90
2023/09/23 03:44:15;;;;;;;;;;;;;;;24.42;45.15;100491.41;109013;1266;67667;-90
2023/09/23 03:46:50;;;;;;;;;;;;;;;24.42;45.02;100495.22;108915;1267;74263;-90
2023/09/23 03:49:17;;;;;;;;;;;;;;;24.42;45.17;100502.02;108906;1267;67152;-90
2023/09/23 03:51:52;;;;;;;;;;;;;;;24.42;45.03;100508.80;108886;1266;67652;31
2023/09/23 03:54:18;;;;;;;;;;;;;;;24.42;45.07;100519.50;109004;1266;67640;-90
2023/09/23 03:56:45;;;;;;;;;;;;;;;24.42;45.32;100522.02;108873;1267;68272;-90
2023/09/23 03:59:11;;;;;;;;;;;;;;;24.41;45.12;100528.51;109031;1266;67844;-90
2023/09/23 04:01:38;;;;;;;;;;;;;;;24.42;45.17;100530.66;108862;1268;67612;-90
2023/09/23 04:04:18;;;;;;;;;;;;;;;24.41;44.84;100529.75;108964;1267;67690;-89
2023/09/23 04:06:49;;;;;;;;;;;;;;;24.41;45.12;100528.41;108939;1266;67612;31
2023/09/23 04:09:15;;;;;;;;;;;;;;;24.41;45.26;100531.85;108873;1269;67691;-90
2023/09/23 04:11:41;;;;;;;;;;;;;;;24.41;45.12;100540.20;108904;1266;67778;-90
2023/09/23 04:14:11;;;;;;;;;;;;;;;24.40;45.32;100540.98;109026;1266;67530;-90
2023/09/23 04:16:40;;;;;;;;;;;;;;;24.40;45.21;100541.75;109006;1265;67630;-90
2023/09/23 04:19:07;;;;;;;;;;;;;;;24.39;45.24;100538.77;109015;1266;67721;-89
2023/09/23 04:21:40;;;;;;;;;;;;;;;24.40;45.05;100538.09;108977;1266;67555;31
2023/09/23 04:24:07;;;;;;;;;;;;;;;24.40;45.17;100537.83;108958;1267;74308;-90
2023/09/23 04:26:33;;;;;;;;;;;;;;;24.40;45.30;100538.82;108945;1265;67779;-90
2023/09/23 04:28:59;;;;;;;;;;;;;;;24.40;45.20;100540.63;108914;1266;67736;-89
2023/09/23 04:31:25;;;;;;;;;;;;;;;24.40;45.08;100546.84;108864;1266;67696;-90
2023/09/23 04:33:51;;;;;;;;;;;;;;;24.39;45.21;100555.27;108945;1264;67250;-90
2023/09/23 04:36:17;;;;;;;;;;;;;;;24.39;45.11;100559.39;109115;1265;67684;-89
2023/09/23 04:38:46;;;;;;;;;;;;;;;24.39;45.20;100562.59;108925;1266;67742;-90
2023/09/23 04:41:12;;;;;;;;;;;;;;;24.39;45.34;100567.98;109059;1266;67626;-90
2023/09/23 04:43:39;;;;;;;;;;;;;;;24.39;45.31;100572.98;108880;1266;67806;-90
2023/09/23 04:46:06;;;;;;;;;;;;;;;24.38;45.07;100573.85;109089;1266;67556;-90
2023/09/23 04:48:37;;;;;;;;;;;;;;;24.39;45.19;100575.04;108989;1266;68037;-88
2023/09/23 04:51:05;;;;;;;;;;;;;;;24.38;45.21;100581.63;108947;1266;67379;-90
2023/09/23 04:53:32;;;;;;;;;;;;;;;24.39;45.21;100585.77;108913;1266;67649;-90
2023/09/23 04:55:58;;;;;;;;;;;;;;;24.39;45.09;100590.04;109062;1265;67696;-89
2023/09/23 04:58:24;;;;;;;;;;;;;;;24.38;45.22;100589.95;108930;1266;67667;-89
2023/09/23 05:00:51;;;;;;;;;;;;;;;24.38;45.22;100588.94;108848;1265;67563;-90
2023/09/23 05:05:47;;;;;;;;;;;;;;;24.38;45.37;100583.01;109050;1265;67633;-89
2023/09/23 05:08:13;;;;;;;;;;;;;;;24.38;45.31;100589.09;108872;1267;67356;-89
2023/09/23 05:10:41;;;;;;;;;;;;;;;24.38;45.32;100586.36;108953;1267;67873;-90
2023/09/23 05:13:08;;;;;;;;;;;;;;;24.38;45.15;100590.11;108876;1266;67825;-90
2023/09/23 05:15:33;;;;;;;;;;;;;;;24.38;45.19;100591.23;108853;1266;67608;-89
2023/09/23 05:17:59;;;;;;;;;;;;;;;24.39;45.25;100591.54;108923;1271;67626;-90
2023/09/23 05:20:25;;;;;;;;;;;;;;;24.38;45.15;100590.36;108917;1266;67367;-90
2023/09/23 05:22:52;;;;;;;;;;;;;;;24.38;45.28;100590.37;108870;1267;67628;-90
2023/09/23 05:25:18;;;;;;;;;;;;;;;24.38;45.14;100588.98;108919;1266;67726;-90
2023/09/23 05:27:44;;;;;;;;;;;;;;;24.38;45.37;100589.27;108943;1271;67721;-90
2023/09/23 05:32:52;;;;;;;;;;;;;;;24.39;45.24;100595.50;108891;1268;67553;-90
2023/09/23 05:35:19;;;;;;;;;;;;;;;24.38;45.25;100597.46;108927;1265;67338;-90
2023/09/23 05:37:45;;;;;;;;;;;;;;;24.39;45.26;100595.09;108898;1266;67645;-90
2023/09/23 05:42:49;;;;;;;;;;;;;;;24.39;45.18;100596.73;108911;1265;67673;-89
2023/09/23 05:45:24;;;;;;;;;;;;;;;24.40;45.28;100599.15;108947;1265;67658;31
2023/09/23 05:47:50;;;;;;;;;;;;;;;24.40;45.24;100608.20;108883;1267;67024;-89
2023/09/23 05:50:17;;;;;;;;;;;;;;;24.40;45.42;100613.33;108852;1268;74013;-90
2023/09/23 05:52:45;;;;;;;;;;;;;;;24.40;45.43;100616.32;108863;1267;67664;-90
2023/09/23 05:55:11;;;;;;;;;;;;;;;24.40;45.36;100617.49;108880;1265;67349;-90
2023/09/23 05:57:40;;;;;;;;;;;;;;;24.41;45.52;100617.09;108897;1266;67567;-90
2023/09/23 06:00:20;;;;;;;;;;;;;;;24.42;45.33;100621.29;109004;1266;75516;31
2023/09/23 06:02:47;;;;;;;;;;;;;;;24.42;45.26;100624.46;108923;1265;74288;-90
2023/09/23 06:05:14;;;;;;;;;;;;;;;24.43;45.35;100626.37;108837;1270;68221;-90
2023/09/23 06:07:41;;;;;;;;;;;;;;;24.43;45.47;100627.65;108882;1266;67590;-90
2023/09/23 06:10:08;;;;;;;;;;;;;;;24.43;45.49;100634.48;108855;1268;67645;-90
2023/09/23 06:12:35;;;;;;;;;;;;;;;24.45;45.43;100639.44;108871;1266;67666;-90
2023/09/23 06:17:32;;;;;;;;;;;;;;;24.45;45.22;100643.77;109045;1266;67926;-90
2023/09/23 06:19:58;;;;;;;;;;;;;;;24.45;45.28;100643.25;108943;1265;67669;-89
2023/09/23 06:22:24;;;;;;;;;;;;;;;24.46;45.38;100647.67;108857;1266;67962;-90
2023/09/23 06:24:50;;;;;;;;;;;;;;;24.46;45.43;100649.16;108993;1266;67328;-91
2023/09/23 06:27:16;;;;;;;;;;;;;;;24.47;45.35;100645.40;108932;1266;67646;-89
2023/09/23 06:29:43;;;;;;;;;;;;;;;24.48;45.27;100646.36;108962;1266;67457;-89
2023/09/23 06:32:09;;;;;;;;;;;;;;;24.48;45.38;100652.42;108887;1267;67606;-89
2023/09/23 06:34:36;;;;;;;;;;;;;;;24.49;45.45;100654.33;108915;1266;67588;-89
2023/09/23 06:37:02;;;;;;;;;;;;;;;24.49;45.35;100657.77;108876;1267;67966;-89
2023/09/23 06:39:28;;;;;;;;;;;;;;;24.50;45.39;100660.38;108913;1266;67815;-90
2023/09/23 06:45:08;;;;;;;;;;;;;;;24.49;45.48;100665.84;108949;1268;67842;-91
2023/09/23 06:47:35;;;;;;;;;;;;;;;24.51;45.42;100672.52;108945;1268;66904;-91
2023/09/23 06:50:04;;;;;;;;;;;;;;;24.51;45.37;100670.30;108900;1267;67653;-91
2023/09/23 06:52:30;;;;;;;;;;;;;;;24.52;45.44;100669.41;108888;1266;74385;-90
2023/09/23 06:54:59;;;;;;;;;;;;;;;24.53;45.46;100669.52;108890;1265;67789;-90
2023/09/23 06:57:24;;;;;;;;;;;;;;;24.54;45.33;100669.95;108917;1266;67513;-91
2023/09/23 07:02:22;;;;;;;;;;;;;;;24.55;45.51;100670.77;109011;1266;67478;-90
2023/09/23 07:04:49;;;;;;;;;;;;;;;24.56;45.52;100666.58;108907;1267;67663;-90
2023/09/23 07:07:18;;;;;;;;;;;;;;;24.57;45.58;100665.29;108925;1266;78611;-90
2023/09/23 07:09:47;;;;;;;;;;;;;;;24.57;45.55;100664.76;109071;1265;66966;-90
2023/09/23 07:12:13;;;;;;;;;;;;;;;24.58;45.61;100669.08;109002;1269;67523;-89
2023/09/23 07:14:39;;;;;;;;;;;;;;;24.58;45.60;100678.17;108905;1266;67601;-89
2023/09/23 07:17:06;;;;;;;;;;;;;;;24.59;45.47;100683.63;108871;1266;67919;-90
2023/09/23 07:19:42;;;;;;;;;;;;;;;24.59;45.51;100691.90;109058;1265;67634;-90
2023/09/23 07:22:08;;;;;;;;;;;;;;;24.61;45.60;100691.21;109009;1266;66936;-90
2023/09/23 07:24:35;;;;;;;;;;;;;;;24.62;45.55;100693.36;108962;1266;67519;-89
2023/09/23 07:32:16;;;;;;;;;;;;;;;24.65;45.42;100698.89;109036;1267;67747;-90
2023/09/23 07:34:43;;;;;;;;;;;;;;;24.66;45.61;100698.67;109001;1265;67674;-90
2023/09/23 07:37:13;;;;;;;;;;;;;;;24.65;45.50;100697.24;109058;1266;67672;-90
2023/09/23 07:39:42;;;;;;;;;;;;;;;24.66;45.56;100697.86;109061;1266;67668;-90
2023/09/23 07:42:08;;;;;;;;;;;;;;;24.66;45.74;100696.20;108997;1266;74366;-90
2023/09/23 07:44:35;;;;;;;;;;;;;;;24.66;45.43;100696.51;108929;1267;67560;-90
2023/09/23 07:47:05;;;;;;;;;;;;;;;24.67;45.57;100696.14;108967;1266;67740;-91
2023/09/23 07:49:32;;;;;;;;;;;;;;;24.67;45.50;100694.45;108966;1266;70776;-90
2023/09/23 07:51:59;;;;;;;;;;;;;;;24.67;45.61;100697.16;108964;1266;66989;-88
2023/09/23 07:54:25;;;;;;;;;;;;;;;24.67;45.60;100693.92;108990;1266;75249;-91
2023/09/23 07:56:55;;;;;;;;;;;;;;;24.68;45.64;100692.16;108961;1266;67524;31
2023/09/23 07:59:21;;;;;;;;;;;;;;;24.68;45.59;100685.63;108865;1270;67629;-91
2023/09/23 08:01:48;;;;;;;;;;;;;;;24.67;45.66;100681.20;108879;1265;67628;-89
2023/09/23 08:04:14;;;;;;;;;;;;;;;24.68;45.79;100681.09;108896;1266;67685;-90
2023/09/23 08:06:43;;;;;;;;;;;;;;;24.68;45.55;100679.30;109030;1266;75180;-90
2023/09/23 08:09:11;;;;;;;;;;;;;;;24.68;45.59;100682.58;108948;1266;66968;-90
2023/09/23 08:11:37;;;;;;;;;;;;;;;24.69;45.70;100678.10;108955;1266;67640;-90
2023/09/23 08:14:13;;;;;;;;;;;;;;;24.69;45.62;100677.02;108978;1266;67520;-91
2023/09/23 08:16:43;;;;;;;;;;;;;;;24.69;45.71;100675.94;108972;1265;67340;-90
2023/09/23 08:19:09;;;;;;;;;;;;;;;24.70;45.60;100678.45;109006;1266;74222;-90
2023/09/23 08:21:35;;;;;;;;;;;;;;;24.71;45.65;100678.36;108906;1266;67018;-91
2023/09/23 08:24:03;;;;;;;;;;;;;;;24.71;45.81;100677.55;109029;1266;67409;-91
2023/09/23 08:26:29;;;;;;;;;;;;;;;24.72;45.81;100677.89;108907;1266;67556;-90
2023/09/23 08:28:56;;;;;;;;;;;;;;;24.73;45.62;100679.73;108985;1266;67748;-90
2023/09/23 08:31:22;;;;;;;;;;;;;;;24.73;45.73;100675.55;108942;1266;67640;-89
2023/09/23 08:33:48;;;;;;;;;;;;;;;24.75;45.83;100673.43;108896;1266;68056;-90
2023/09/23 08:36:15;;;;;;;;;;;;;;;24.75;45.74;100669.93;108887;1266;67575;-90
2023/09/23 08:38:44;;;;;;;;;;;;;;;24.77;45.91;100671.66;108930;1266;67576;-90
2023/09/23 08:41:12;;;;;;;;;;;;;;;24.78;45.64;100675.46;108954;1266;66941;-89
2023/09/23 08:43:39;;;;;;;;;;;;;;;24.79;45.68;100673.55;108925;1266;75233;-90
2023/09/23 08:46:09;;;;;;;;;;;;;;;24.79;45.87;100669.63;108883;1266;67664;-91
2023/09/23 08:48:48;;;;;;;;;;;;;;;;;;;;;
2023/09/23 08:51:17;;;;;;;;;;;;;;;24.80;45.75;100667.76;109005;1266;67659;-90
2023/09/23 08:53:43;;;;;;;;;;;;;;;24.80;45.75;100664.52;108899;1267;66885;-91
2023/09/23 08:56:11;;;;;;;;;;;;;;;24.81;45.93;100665.17;109016;1266;74133;-90
2023/09/23 08:58:42;;;;;;;;;;;;;;;24.81;45.67;100666.03;109115;1265;66859;-91
2023/09/23 09:01:09;;;;;;;;;;;;;;;24.81;45.74;100662.94;109092;1266;66938;-90
2023/09/23 09:03:36;;;;;;;;;;;;;;;24.82;45.75;100659.85;109072;1265;67975;-90
2023/09/23 09:06:03;;;;;;;;;;;;;;;24.82;45.93;100661.45;108883;1266;67729;-90
2023/09/23 09:10:57;;;;;;;;;;;;;;;24.82;45.85;100660.36;109031;1265;67651;-90
2023/09/23 09:13:23;;;;;;;;;;;;;;;24.83;45.84;100659.54;108890;1266;67683;-90
2023/09/23 09:15:50;;;;;;;;;;;;;;;24.83;45.82;100666.11;108868;1267;67542;-90
2023/09/23 09:18:19;;;;;;;;;;;;;;;24.83;45.97;100663.28;108858;1273;67836;-90
2023/09/23 09:20:47;;;;;;;;;;;;;;;24.84;45.91;100661.12;109048;1265;74046;-90
2023/09/23 09:23:15;;;;;;;;;;;;;;;24.84;45.90;100660.50;109029;1266;66896;-90
2023/09/23 09:25:47;;;;;;;;;;;;;;;24.84;45.93;100656.39;108905;1266;70740;-90
2023/09/23 09:28:18;;;;;;;;;;;;;;;24.85;45.74;100656.47;108899;1267;68219;-90
2023/09/23 09:30:44;;;;;;;;;;;;;;;24.85;45.88;100655.08;108930;1266;67210;-91
2023/09/23 09:33:11;;;;;;;;;;;;;;;24.86;46.05;100649.09;109085;1265;68932;-90
2023/09/23 09:35:37;;;;;;;;;;;;;;;24.87;45.97;100649.14;109004;1266;70723;-90
2023/09/23 09:38:06;;;;;;;;;;;;;;;24.87;45.89;100647.76;109119;1265;67490;-89
2023/09/23 09:40:32;;;;;;;;;;;;;;;24.87;45.82;100644.81;108928;1266;66969;-90
2023/09/23 09:42:59;;;;;;;;;;;;;;;24.88;46.01;100648.82;109033;1267;67625;-90
2023/09/23 09:45:27;;;;;;;;;;;;;;;24.88;46.04;100648.92;108924;1266;74495;-91
2023/09/23 09:48:00;;;;;;;;;;;;;;;24.89;46.08;100649.52;109081;1265;67715;-91
2023/09/23 09:50:30;;;;;;;;;;;;;;;24.90;45.99;100649.10;109010;1266;67489;31
2023/09/23 09:52:59;;;;;;;;;;;;;;;24.90;46.09;100644.77;108964;1267;67159;-90
2023/09/23 09:55:25;;;;;;;;;;;;;;;24.91;46.04;100647.70;109230;1265;68008;-91
2023/09/23 09:57:54;;;;;;;;;;;;;;;24.93;45.87;100649.52;109147;1266;74024;-91
2023/09/23 10:02:48;;;;;;;;;;;;;;;24.94;45.94;100650.79;109099;1269;66823;-90
2023/09/23 10:07:56;;;;;;;;;;;;;;;24.96;45.95;100648.09;109023;1266;66866;-90
2023/09/23 10:10:33;;;;;;;;;;;;;;;24.97;45.84;100647.41;108890;1267;74039;-90
2023/09/23 10:13:07;;;;;;;;;;;;;;;24.98;45.79;100645.14;108923;1266;67562;-90
2023/09/23 10:15:44;;;;;;;;;;;;;;;24.98;45.87;100639.11;109063;1266;67669;-90
2023/09/23 10:18:14;;;;;;;;;;;;;;;24.99;45.98;100638.99;109112;1265;66960;-90
2023/09/23 10:20:48;;;;;;;;;;;;;;;24.99;45.89;100628.70;109112;1266;66855;-90
2023/09/23 10:23:40;;;;;;;;;;;;;;;24.99;45.95;100621.54;109081;1266;74336;31
2023/09/23 10:31:48;;;;;;;;;;;;;;;25.02;45.87;100613.16;108960;1267;67539;-90
2023/09/23 10:34:19;;;;;;;;;;;;;;;25.02;45.81;100607.23;109110;1265;68250;-90
2023/09/23 10:36:48;;;;;;;;;;;;;;;25.02;45.80;100602.09;109101;1266;82844;-90
2023/09/23 10:39:18;;;;;;;;;;;;;;;25.03;45.98;100602.58;108980;1266;67876;-90
2023/09/23 10:41:44;;;;;;;;;;;;;;;25.03;45.97;100599.30;108951;1267;67737;-90
2023/09/23 10:44:25;;;;;;;;;;;;;;;25.04;45.80;100600.25;109087;1266;67655;31
2023/09/23 10:46:52;;;;;;;;;;;;;;;25.05;45.86;100595.65;108879;1267;67662;-90
2023/09/23 10:49:19;;;;;;;;;;;;;;;25.06;45.84;100592.35;108916;1266;74299;-89
2023/09/23 10:51:45;;;;;;;;;;;;;;;25.07;46.03;100591.91;108920;1265;68841;-90
2023/09/23 10:54:13;;;;;;;;;;;;;;;25.08;45.92;100584.34;108928;1267;67515;-90
2023/09/23 10:56:48;;;;;;;;;;;;;;;25.08;45.83;100574.77;108882;1266;67890;-90
2023/09/23 10:59:24;;;;;;;;;;;;;;;25.09;45.67;100575.83;108925;1266;67527;-89
2023/09/23 11:01:50;;;;;;;;;;;;;;;25.10;45.70;100576.34;108952;1266;74445;-90
2023/09/23 11:04:19;;;;;;;;;;;;;;;25.10;45.84;100573.96;108949;1265;67912;-90
2023/09/23 11:06:45;;;;;;;;;;;;;;;25.10;45.87;100568.91;108940;1265;67761;-90
2023/09/23 11:09:14;;;;;;;;;;;;;;;25.12;45.50;100571.30;109000;1266;67223;-90
2023/09/23 11:11:40;;;;;;;;;;;;;;;25.12;45.62;100567.38;109020;1266;67122;-90
2023/09/23 11:14:27;;;;;;;;;;;;;;;25.12;45.53;100566.45;108930;1264;67702;31
2023/09/23 11:19:26;;;;;;;;;;;;;;;25.13;45.79;100559.45;109105;1266;67656;-90
2023/09/23 11:21:52;;;;;;;;;;;;;;;25.13;45.52;100554.05;108948;1271;67528;-89
2023/09/23 11:24:21;;;;;;;;;;;;;;;25.13;45.78;100548.69;108961;1266;67699;-90
2023/09/23 11:26:48;;;;;;;;;;;;;;;25.14;45.77;100545.80;109112;1266;74516;-91
2023/09/23 11:29:18;;;;;;;;;;;;;;;25.15;45.64;100544.48;109106;1265;67678;-90
2023/09/23 11:31:45;;;;;;;;;;;;;;;25.15;45.52;100543.56;108978;1266;67545;-90
2023/09/23 11:34:11;;;;;;;;;;;;;;;25.15;45.72;100542.73;108916;1265;67660;-90
2023/09/23 11:36:37;;;;;;;;;;;;;;;25.16;45.54;100539.26;108910;1266;67830;-90
2023/09/23 11:39:07;;;;;;;;;;;;;;;25.17;45.53;100536.32;108963;1266;67763;-91
2023/09/23 11:41:34;;;;;;;;;;;;;;;25.17;45.41;100534.29;108974;1266;67841;-90
2023/09/23 11:44:05;;;;;;;;;;;;;;;25.17;45.41;100531.45;108933;1266;67527;31
2023/09/23 11:46:32;;;;;;;;;;;;;;;25.17;45.63;100528.77;109146;1266;67690;-90
2023/09/23 11:48:59;;;;;;;;;;;;;;;25.18;45.66;100526.77;109168;1264;67532;-90
2023/09/23 11:51:25;;;;;;;;;;;;;;;25.19;45.57;100522.59;108986;1265;67955;-90
2023/09/23 11:53:51;;;;;;;;;;;;;;;25.19;45.76;100515.42;109017;1266;67011;-90
2023/09/23 11:56:20;;;;;;;;;;;;;;;25.20;45.45;100517.05;109014;1263;67605;-90
2023/09/23 12:01:19;;;;;;;;;;;;;;;25.21;45.51;100505.10;109073;1265;67527;-90
2023/09/23 12:03:45;;;;;;;;;;;;;;;25.21;45.43;100500.61;108969;1266;75070;-90
2023/09/23 12:06:11;;;;;;;;;;;;;;;25.22;45.46;100501.48;108972;1264;67513;-90
2023/09/23 12:08:38;;;;;;;;;;;;;;;25.22;45.47;100500.14;108957;1266;67708;-89
2023/09/23 12:11:04;;;;;;;;;;;;;;;25.23;45.53;100494.66;109087;1263;67041;-89
2023/09/23 12:13:33;;;;;;;;;;;;;;;25.23;45.37;100490.45;108996;1267;67623;-90
2023/09/23 12:16:00;;;;;;;;;;;;;;;25.23;45.39;100487.05;109057;1266;75102;-90
2023/09/23 12:18:26;;;;;;;;;;;;;;;25.24;45.39;100488.22;108940;1267;67446;-90
2023/09/23 12:20:58;;;;;;;;;;;;;;;25.24;45.60;100483.73;108988;1266;67575;-90
2023/09/23 12:23:25;;;;;;;;;;;;;;;25.24;45.61;100478.79;109046;1267;67674;-90
2023/09/23 12:31:22;;;;;;;;;;;;;;;25.25;45.53;100473.98;108984;1269;66899;-90
2023/09/23 12:33:49;;;;;;;;;;;;;;;25.26;45.36;100473.56;108978;1265;67827;-90
2023/09/23 12:36:14;;;;;;;;;;;;;;;25.26;45.14;100473.76;109075;1266;67673;-90
2023/09/23 12:38:40;;;;;;;;;;;;;;;25.26;45.08;100477.05;109040;1268;67380;-89
2023/09/23 12:41:10;;;;;;;;;;;;;;;25.27;45.29;100477.40;108974;1265;67690;-90
2023/09/23 12:43:36;;;;;;;;;;;;;;;25.28;45.17;100475.92;109038;1266;67593;-89
2023/09/23 12:46:03;;;;;;;;;;;;;;;25.28;45.33;100475.41;108928;1265;67709;-90
2023/09/23 12:48:30;;;;;;;;;;;;;;;25.30;45.22;100472.30;108965;1266;66885;-90
2023/09/23 12:50:56;;;;;;;;;;;;;;;25.30;45.38;100472.34;108940;1266;67690;-90
2023/09/23 12:53:22;;;;;;;;;;;;;;;25.31;45.36;100471.14;109155;1265;67834;-90
2023/09/23 12:55:48;;;;;;;;;;;;;;;25.31;45.33;100468.70;108996;1266;67693;-90
2023/09/23 12:58:15;;;;;;;;;;;;;;;25.32;45.14;100463.84;108896;1266;67603;-90
2023/09/23 13:00:41;;;;;;;;;;;;;;;25.34;45.17;100464.29;108980;1266;66946;-90
2023/09/23 13:03:13;;;;;;;;;;;;;;;25.35;45.13;100465.55;109049;1269;67406;-90
2023/09/23 13:05:39;;;;;;;;;;;;;;;25.36;45.08;100469.71;108941;1266;74132;-90
2023/09/23 13:08:05;;;;;;;;;;;;;;;25.38;45.01;100473.40;108884;1266;67666;-91
2023/09/23 13:10:37;;;;;;;;;;;;;;;25.38;45.09;100475.15;108898;1265;67465;-90
2023/09/23 13:13:03;;;;;;;;;;;;;;;25.38;45.28;100472.77;109006;1266;67732;-90
2023/09/23 13:15:29;;;;;;;;;;;;;;;25.39;45.19;100473.23;108992;1264;67615;-91
2023/09/23 13:17:56;;;;;;;;;;;;;;;25.38;45.27;100472.35;109045;1266;74190;-91
2023/09/23 13:20:22;;;;;;;;;;;;;;;25.38;45.15;100470.23;108955;1266;67744;-90
2023/09/23 13:22:49;;;;;;;;;;;;;;;25.38;45.10;100471.07;108909;1266;67616;-89
2023/09/23 13:25:15;;;;;;;;;;;;;;;25.38;45.05;100470.20;108996;1266;67490;-89
2023/09/23 13:27:42;;;;;;;;;;;;;;;25.38;45.13;100469.79;109177;1264;67675;-90
2023/09/23 13:30:14;;;;;;;;;;;;;;;25.38;44.91;100469.52;109070;1265;67608;-89
2023/09/23 13:32:41;;;;;;;;;;;;;;;25.38;45.00;100467.94;108968;1267;67744;-89